Time;durP1;ratioP1;P1;durP2;ratioP2;P2;SDS_P1;SDS_P2;PMS_P1;PMS_P2;Temp;Humidity;BMP_temperature;BMP_pressure;BME280_temperature;BME280_humidity;BME280_pressure;Samples;Min_cycle;Max_cycle;Signal;HPM_P1;HPM_P2
2023/05/15 00:00:28;;;;;;;81.60;43.57;;;13.20;99.90;;;;;;5072336;28;20211;-75
2023/05/15 00:02:55;;;;;;;88.87;46.97;;;13.10;99.90;;;;;;5072931;28;20635;-75
2023/05/15 00:05:21;;;;;;;90.20;48.50;;;13.20;99.90;;;;;;5071894;28;20179;-75
2023/05/15 00:07:47;;;;;;;84.47;46.37;;;13.10;99.90;;;;;;5071865;28;20195;-75
2023/05/15 00:10:13;;;;;;;85.07;46.93;;;12.90;99.90;;;;;;5071672;28;20212;-74
2023/05/15 00:12:38;;;;;;;85.13;46.93;;;13.10;99.90;;;;;;5071539;28;20216;-75
2023/05/15 00:15:04;;;;;;;91.57;48.97;;;13.10;99.90;;;;;;5072546;28;20169;-75
2023/05/15 00:17:32;;;;;;;84.40;47.20;;;13.00;99.90;;;;;;5072601;28;20175;-75
2023/05/15 00:19:59;;;;;;;91.40;47.77;;;13.10;99.90;;;;;;5072872;28;20171;-74
2023/05/15 00:22:25;;;;;;;84.60;46.77;;;13.00;99.90;;;;;;5071740;28;20174;-74
2023/05/15 00:24:50;;;;;;;85.33;47.63;;;13.10;99.90;;;;;;5071409;28;20186;-74
2023/05/15 00:27:16;;;;;;;80.00;46.13;;;13.20;99.90;;;;;;5072947;28;20206;-75
2023/05/15 00:29:43;;;;;;;85.80;46.27;;;13.20;99.90;;;;;;5071723;28;20181;-74
2023/05/15 00:32:09;;;;;;;74.73;44.07;;;13.20;99.90;;;;;;5073149;28;20198;-74
2023/05/15 00:34:35;;;;;;;76.67;42.63;;;13.20;99.90;;;;;;5071817;28;20261;-74
2023/05/15 00:37:01;;;;;;;80.07;42.87;;;13.20;99.90;;;;;;5071779;28;20262;-74
2023/05/15 00:39:26;;;;;;;78.60;44.47;;;13.30;99.90;;;;;;5071283;28;20304;-76
2023/05/15 00:41:53;;;;;;;78.87;45.53;;;13.20;99.90;;;;;;5071552;28;20231;-74
2023/05/15 00:44:19;;;;;;;77.77;43.17;;;13.10;99.90;;;;;;5072744;28;20591;-74
2023/05/15 00:46:48;;;;;;;78.00;45.00;;;13.00;99.90;;;;;;5070929;28;20282;-74
2023/05/15 00:49:15;;;;;;;91.50;49.37;;;13.10;99.90;;;;;;5072483;28;20171;-74
2023/05/15 00:51:42;;;;;;;95.00;52.87;;;13.10;99.90;;;;;;5072946;28;20510;-73
2023/05/15 00:54:09;;;;;;;109.23;58.60;;;13.00;99.90;;;;;;5072609;28;20563;-73
2023/05/15 00:56:35;;;;;;;107.57;57.90;;;12.90;99.90;;;;;;5071279;28;20186;-75
2023/05/15 00:59:02;;;;;;;104.27;56.87;;;12.90;99.90;;;;;;5071446;28;20517;-75
2023/05/15 01:01:33;;;;;;;94.00;53.47;;;12.80;99.90;;;;;;5073083;28;20527;-73
2023/05/15 01:04:01;;;;;;;104.00;56.00;;;12.80;99.90;;;;;;5070707;28;20632;-73
2023/05/15 01:06:28;;;;;;;92.97;50.40;;;12.80;99.90;;;;;;5072343;28;20531;-76
2023/05/15 01:08:56;;;;;;;78.80;45.73;;;12.70;99.90;;;;;;5072246;28;20171;-75
2023/05/15 01:11:26;;;;;;;79.03;46.70;;;12.50;99.90;;;;;;5070840;28;20579;-75
2023/05/15 01:13:51;;;;;;;75.57;42.50;;;12.70;99.90;;;;;;5070378;28;20171;-73
2023/05/15 01:16:17;;;;;;;72.93;42.17;;;12.90;99.90;;;;;;5072378;28;20620;-73
2023/05/15 01:18:43;;;;;;;70.33;40.60;;;12.80;99.90;;;;;;5070590;28;20186;-75
2023/05/15 01:21:25;;;;;;;72.77;41.10;;;12.80;99.90;;;;;;5070724;28;20173;-73
2023/05/15 01:24:03;;;;;;;66.47;38.10;;;12.70;99.90;;;;;;5070536;28;20342;-73
2023/05/15 01:26:32;;;;;;;60.27;37.53;;;12.80;99.90;;;;;;5072159;28;20206;-75
2023/05/15 01:29:07;;;;;;;57.43;35.27;;;12.80;99.90;;;;;;5072268;28;20224;-75
2023/05/15 01:31:37;;;;;;;58.47;35.20;;;12.70;99.90;;;;;;5071471;28;20605;-74
2023/05/15 01:34:07;;;;;;;60.20;37.27;;;12.80;99.90;;;;;;5070554;28;20178;-75
2023/05/15 01:36:38;;;;;;;66.23;40.83;;;12.80;99.90;;;;;;5071916;28;20169;-75
2023/05/15 01:39:05;;;;;;;80.60;44.57;;;12.60;99.90;;;;;;5072526;28;20160;-75
2023/05/15 01:41:44;;;;;;;92.03;50.47;;;12.80;99.90;;;;;;5070701;28;20181;-75
2023/05/15 01:44:30;;;;;;;82.80;49.07;;;12.80;99.90;;;;;;5070848;28;20192;-75
2023/05/15 01:47:03;;;;;;;92.40;50.07;;;12.80;99.90;;;;;;5070991;28;20210;-74
2023/05/15 01:49:30;;;;;;;89.33;51.30;;;12.80;99.90;;;;;;5072136;28;20196;-75
2023/05/15 01:52:09;;;;;;;95.57;51.03;;;12.80;99.90;;;;;;5070785;28;20171;-74
2023/05/15 01:54:35;;;;;;;112.63;57.77;;;12.60;99.90;;;;;;5070542;28;20174;-74
2023/05/15 01:57:04;;;;;;;123.53;58.53;;;12.60;99.90;;;;;;5070737;28;20676;-75
2023/05/15 01:59:31;;;;;;;109.50;55.10;;;12.60;99.90;;;;;;5071779;28;20217;-75
2023/05/15 02:01:58;;;;;;;117.60;60.57;;;12.60;99.90;;;;;;5070692;28;20184;-74
2023/05/15 02:04:25;;;;;;;117.73;59.60;;;12.40;99.90;;;;;;5071130;28;20239;-76
2023/05/15 02:06:52;;;;;;;128.67;65.77;;;12.30;99.90;;;;;;5072327;28;20202;-75
2023/05/15 02:09:19;;;;;;;139.30;75.57;;;12.40;99.90;;;;;;5073433;28;20541;-76
2023/05/15 02:11:46;;;;;;;145.57;78.67;;;12.60;99.90;;;;;;5074667;28;20184;-77
2023/05/15 02:14:15;;;;;;;151.00;77.67;;;12.50;99.90;;;;;;5075848;28;20182;-78
2023/05/15 02:16:40;;;;;;;132.67;71.40;;;12.60;99.90;;;;;;5074323;28;20178;-77
2023/05/15 02:19:06;;;;;;;108.53;58.17;;;12.60;99.90;;;;;;5074612;28;20670;-78
2023/05/15 02:21:33;;;;;;;63.63;38.40;;;12.80;99.90;;;;;;5076117;28;20201;-78
2023/05/15 02:23:58;;;;;;;70.90;41.43;;;12.90;99.90;;;;;;5076065;28;20279;-77
2023/05/15 02:26:33;;;;;;;73.13;43.70;;;12.80;99.90;;;;;;5074669;28;20294;-77
2023/05/15 02:29:21;;;;;;;56.83;35.03;;;12.80;99.90;;;;;;5076147;28;20232;-78
2023/05/15 02:32:13;;;;;;;53.90;35.07;;;12.80;99.90;;;;;;5074355;28;20167;-77
2023/05/15 02:34:57;;;;;;;62.33;38.60;;;12.80;99.90;;;;;;5075067;28;20623;-76
2023/05/15 02:37:27;;;;;;;64.00;39.53;;;12.80;99.90;;;;;;5075433;28;20501;-76
2023/05/15 02:39:54;;;;;;;54.23;36.97;;;12.60;99.90;;;;;;5073988;28;20181;-77
2023/05/15 02:42:20;;;;;;;59.73;38.93;;;12.70;99.90;;;;;;5075227;28;20210;-76
2023/05/15 02:44:47;;;;;;;58.10;39.90;;;12.70;99.90;;;;;;5073721;28;20206;-77
2023/05/15 02:47:14;;;;;;;60.10;38.53;;;12.70;99.90;;;;;;5075270;28;20193;-77
2023/05/15 02:49:40;;;;;;;60.03;37.70;;;12.80;99.90;;;;;;5073882;28;20204;-77
2023/05/15 02:52:06;;;;;;;61.17;39.30;;;12.70;99.90;;;;;;5074062;28;20175;-77
2023/05/15 02:54:31;;;;;;;58.20;38.87;;;12.70;99.90;;;;;;5075222;28;20257;-77
2023/05/15 02:56:57;;;;;;;61.90;38.87;;;12.70;99.90;;;;;;5073995;28;20273;-77
2023/05/15 02:59:23;;;;;;;63.33;39.83;;;12.60;99.90;;;;;;5075208;28;20176;-76
2023/05/15 03:01:49;;;;;;;70.47;42.53;;;12.70;99.90;;;;;;5074269;28;20170;-77
2023/05/15 03:04:15;;;;;;;65.70;41.77;;;12.60;99.90;;;;;;5074983;28;20153;-77
2023/05/15 03:06:40;;;;;;;64.73;39.90;;;12.70;99.90;;;;;;5074728;28;20210;-77
2023/05/15 03:09:07;;;;;;;67.47;42.50;;;12.80;99.90;;;;;;5074755;28;20163;-77
2023/05/15 03:11:32;;;;;;;66.90;41.03;;;12.70;99.90;;;;;;5072469;28;20173;-77
2023/05/15 03:14:01;;;;;;;64.27;40.97;;;12.70;99.90;;;;;;5074786;28;20268;-76
2023/05/15 03:16:27;;;;;;;64.07;40.83;;;12.50;99.90;;;;;;5072592;28;20230;-76
2023/05/15 03:18:52;;;;;;;62.40;39.20;;;12.50;99.90;;;;;;5074055;28;20178;-78
2023/05/15 03:21:20;;;;;;;66.17;38.63;;;12.50;99.90;;;;;;5072131;28;20171;-76
2023/05/15 03:23:46;;;;;;;65.47;39.20;;;12.50;99.90;;;;;;5074057;28;20647;-76
2023/05/15 03:26:11;;;;;;;69.27;42.03;;;12.60;99.90;;;;;;5073988;28;20175;-76
2023/05/15 03:28:37;;;;;;;79.57;45.23;;;12.70;99.90;;;;;;5061554;28;20243;-76
2023/05/15 03:31:03;;;;;;;80.03;45.83;;;12.70;99.90;;;;;;5071067;28;20539;-76
2023/05/15 03:33:30;;;;;;;76.80;45.33;;;12.70;99.90;;;;;;5074005;28;20242;-76
2023/05/15 03:35:56;;;;;;;77.17;44.07;;;12.50;99.90;;;;;;5074324;28;20254;-76
2023/05/15 03:38:22;;;;;;;68.87;42.40;;;12.60;99.90;;;;;;5073539;28;20247;-76
2023/05/15 03:40:48;;;;;;;68.27;40.93;;;12.60;99.90;;;;;;5071947;28;20168;-76
2023/05/15 03:43:15;;;;;;;73.20;43.57;;;12.60;99.90;;;;;;5073690;28;20167;-76
2023/05/15 03:45:40;;;;;;;59.43;37.13;;;12.60;99.90;;;;;;5074087;28;20624;-76
2023/05/15 03:48:06;;;;;;;67.60;39.30;;;12.60;99.90;;;;;;5073374;28;20268;-77
2023/05/15 03:50:32;;;;;;;69.80;41.40;;;12.60;99.90;;;;;;5073913;28;20154;-75
2023/05/15 03:52:59;;;;;;;60.40;36.73;;;12.50;99.90;;;;;;5072347;28;20174;-77
2023/05/15 03:55:25;;;;;;;66.43;39.13;;;12.50;99.90;;;;;;5073453;28;20202;-76
2023/05/15 03:57:50;;;;;;;70.93;39.77;;;12.40;99.90;;;;;;5073965;28;20212;-77
2023/05/15 04:00:16;;;;;;;61.87;38.10;;;12.50;99.90;;;;;;5073565;28;20155;-77
2023/05/15 04:02:43;;;;;;;64.03;40.20;;;12.40;99.90;;;;;;5073668;28;20575;-76
2023/05/15 04:05:10;;;;;;;58.73;37.53;;;12.40;99.90;;;;;;5072109;28;20659;-76
2023/05/15 04:07:36;;;;;;;55.60;33.67;;;12.60;99.90;;;;;;5073313;28;20227;-76
2023/05/15 04:10:02;;;;;;;61.03;36.93;;;12.80;99.90;;;;;;5072148;28;20259;-76
2023/05/15 04:12:32;;;;;;;69.13;38.07;;;12.80;99.90;;;;;;5073464;28;20148;-76
2023/05/15 04:15:14;;;;;;;74.13;37.67;;;12.60;99.90;;;;;;5073156;28;20222;-75
2023/05/15 04:17:40;;;;;;;61.03;35.90;;;12.50;99.90;;;;;;5073325;28;20162;-78
2023/05/15 04:20:08;;;;;;;61.37;37.33;;;12.50;99.90;;;;;;5071933;28;20178;-78
2023/05/15 04:22:34;;;;;;;63.60;36.63;;;12.60;99.90;;;;;;5072484;28;20150;-77
2023/05/15 04:24:59;;;;;;;57.30;34.70;;;12.70;99.90;;;;;;5070987;28;20178;-78
2023/05/15 04:27:25;;;;;;;57.63;33.87;;;12.60;99.90;;;;;;5071722;28;20674;-77
2023/05/15 04:29:51;;;;;;;56.97;34.23;;;12.60;99.90;;;;;;5071731;28;20174;-77
2023/05/15 04:32:16;;;;;;;57.70;35.23;;;12.80;99.90;;;;;;5073143;28;20152;-78
2023/05/15 04:34:42;;;;;;;55.57;34.33;;;12.80;99.90;;;;;;5073032;28;20166;-77
2023/05/15 04:37:10;;;;;;;54.70;33.97;;;12.80;99.90;;;;;;5073051;28;20301;-78
2023/05/15 04:39:36;;;;;;;65.23;36.13;;;12.70;99.90;;;;;;5071628;28;20687;-78
2023/05/15 04:42:02;;;;;;;54.40;33.23;;;12.70;99.90;;;;;;5073204;28;20243;-78
2023/05/15 04:44:28;;;;;;;48.40;31.03;;;12.40;99.90;;;;;;5072471;28;20213;-78
2023/05/15 04:46:55;;;;;;;50.63;32.53;;;12.30;99.90;;;;;;5071537;28;20307;-77
2023/05/15 04:49:21;;;;;;;50.90;31.53;;;12.30;99.90;;;;;;5073063;28;20166;-78
2023/05/15 04:51:47;;;;;;;54.87;31.57;;;12.50;99.90;;;;;;5072619;28;20289;-77
2023/05/15 04:54:12;;;;;;;47.97;30.20;;;12.40;99.90;;;;;;5073183;28;20155;-77
2023/05/15 04:56:38;;;;;;;54.07;31.30;;;12.60;99.90;;;;;;5073031;28;20155;-76
2023/05/15 04:59:03;;;;;;;51.90;31.77;;;12.80;99.90;;;;;;5073131;28;20200;-78
2023/05/15 05:01:29;;;;;;;52.60;30.47;;;12.70;99.90;;;;;;5071852;28;20625;-78
2023/05/15 05:03:55;;;;;;;46.97;30.30;;;12.70;99.90;;;;;;5070950;28;20181;-77
2023/05/15 05:06:22;;;;;;;53.10;32.03;;;12.80;99.90;;;;;;5073002;28;20229;-78
2023/05/15 05:08:48;;;;;;;54.50;32.93;;;12.80;99.90;;;;;;5073131;28;20177;-77
2023/05/15 05:11:14;;;;;;;50.47;32.67;;;12.80;99.90;;;;;;5072995;28;20532;-77
2023/05/15 05:13:40;;;;;;;58.50;33.37;;;12.80;99.90;;;;;;5072505;28;20166;-77
2023/05/15 05:16:06;;;;;;;50.87;31.23;;;12.90;99.90;;;;;;5072708;28;20178;-77
2023/05/15 05:18:33;;;;;;;54.80;32.00;;;12.90;99.90;;;;;;5072343;28;20160;-77
2023/05/15 05:21:00;;;;;;;53.80;33.03;;;12.80;99.90;;;;;;5071470;28;20218;-78
2023/05/15 05:23:26;;;;;;;53.63;32.77;;;12.80;99.90;;;;;;5072400;28;20173;-78
2023/05/15 05:25:52;;;;;;;53.83;32.53;;;12.80;99.90;;;;;;5070958;28;20242;-78
2023/05/15 05:28:17;;;;;;;50.70;32.03;;;12.70;99.90;;;;;;5071008;28;20283;-78
2023/05/15 05:30:46;;;;;;;51.17;31.07;;;12.70;99.90;;;;;;5070831;28;20246;-77
2023/05/15 05:33:13;;;;;;;51.77;32.03;;;12.90;99.90;;;;;;5072339;28;20233;-77
2023/05/15 05:35:39;;;;;;;49.20;30.37;;;12.60;99.90;;;;;;5071207;28;20534;-77
2023/05/15 05:38:05;;;;;;;50.77;31.20;;;12.60;99.90;;;;;;5072598;28;20178;-77
2023/05/15 05:40:31;;;;;;;54.97;31.77;;;12.40;99.90;;;;;;5072376;28;20246;-79
2023/05/15 05:43:00;;;;;;;53.30;31.43;;;12.50;99.90;;;;;;5071214;28;20173;-78
2023/05/15 05:45:27;;;;;;;52.33;31.43;;;12.30;99.90;;;;;;5075700;28;20188;-78
2023/05/15 05:47:54;;;;;;;55.37;32.57;;;12.30;99.90;;;;;;5074798;28;20209;-78
2023/05/15 05:50:21;;;;;;;49.50;31.33;;;12.30;99.90;;;;;;5075419;28;20174;-79
2023/05/15 05:52:47;;;;;;;54.00;31.30;;;12.40;99.90;;;;;;5076474;28;20156;-78
2023/05/15 05:55:15;;;;;;;52.70;31.40;;;12.60;99.90;;;;;;5076151;28;20598;-78
2023/05/15 05:57:42;;;;;;;46.83;30.37;;;12.70;99.90;;;;;;5075927;28;20253;-79
2023/05/15 06:00:09;;;;;;;49.23;31.83;;;12.70;99.90;;;;;;5074710;28;20238;-78
2023/05/15 06:02:38;;;;;;;52.67;31.60;;;12.60;99.90;;;;;;5076269;28;20174;-77
2023/05/15 06:05:06;;;;;;;46.33;30.03;;;12.50;99.90;;;;;;5075786;28;20177;-78
2023/05/15 06:07:32;;;;;;;49.43;30.87;;;12.60;99.90;;;;;;5075962;28;20221;-78
2023/05/15 06:09:58;;;;;;;54.60;32.20;;;12.50;99.90;;;;;;5074608;28;20178;-78
2023/05/15 06:12:24;;;;;;;46.70;30.07;;;12.40;99.90;;;;;;5074179;28;20271;-78
2023/05/15 06:14:50;;;;;;;46.77;30.33;;;12.30;99.90;;;;;;5075555;28;20170;-77
2023/05/15 06:17:15;;;;;;;54.37;33.33;;;12.40;99.90;;;;;;5076397;28;20173;-77
2023/05/15 06:19:41;;;;;;;48.00;31.47;;;12.50;99.90;;;;;;5075762;28;20245;-77
2023/05/15 06:22:06;;;;;;;50.10;32.23;;;12.60;99.90;;;;;;5075730;28;20168;-77
2023/05/15 06:24:32;;;;;;;48.10;30.90;;;12.70;99.90;;;;;;5074124;28;20190;-77
2023/05/15 06:26:58;;;;;;;49.10;32.47;;;12.90;99.90;;;;;;5075233;28;20304;-77
2023/05/15 06:29:24;;;;;;;49.10;31.27;;;12.90;99.90;;;;;;5075617;28;20530;-78
2023/05/15 06:31:51;;;;;;;51.30;32.97;;;13.10;99.90;;;;;;5073984;28;20261;-78
2023/05/15 06:34:17;;;;;;;49.47;31.50;;;13.20;99.90;;;;;;5075263;28;20240;-78
2023/05/15 06:36:43;;;;;;;47.27;30.60;;;13.20;99.90;;;;;;5075132;28;20630;-78
2023/05/15 06:39:09;;;;;;;48.17;32.27;;;13.40;99.90;;;;;;5075563;28;20623;-77
2023/05/15 06:41:36;;;;;;;54.00;34.13;;;13.50;99.90;;;;;;5074005;28;20259;-78
2023/05/15 06:44:02;;;;;;;49.07;32.03;;;13.60;99.90;;;;;;5075136;28;20178;-78
2023/05/15 06:46:28;;;;;;;47.03;30.77;;;13.90;99.90;;;;;;5075460;28;20205;-77
2023/05/15 06:48:53;;;;;;;42.70;29.57;;;14.00;99.90;;;;;;5075344;28;20156;-78
2023/05/15 06:51:19;;;;;;;43.83;30.37;;;14.40;99.90;;;;;;5073828;28;20173;-77
2023/05/15 06:53:45;;;;;;;41.93;29.80;;;14.70;99.90;;;;;;5073999;28;20169;-78
2023/05/15 06:56:10;;;;;;;44.93;29.00;;;14.70;99.90;;;;;;5074630;28;20148;-78
2023/05/15 06:58:36;;;;;;;47.17;30.73;;;14.60;99.90;;;;;;5073340;28;20163;-79
2023/05/15 07:01:03;;;;;;;53.03;29.80;;;14.60;99.90;;;;;;5074834;28;20512;-77
2023/05/15 07:03:32;;;;;;;44.03;29.17;;;14.30;99.90;;;;;;5074958;28;20151;-77
2023/05/15 07:05:57;;;;;;;43.03;29.63;;;14.50;99.90;;;;;;5073180;28;20269;-79
2023/05/15 07:08:23;;;;;;;40.80;29.27;;;14.50;99.90;;;;;;5073756;28;20687;-78
2023/05/15 07:10:49;;;;;;;45.13;29.70;;;14.50;99.90;;;;;;5073265;28;20569;-77
2023/05/15 07:13:19;;;;;;;43.30;30.00;;;14.70;99.90;;;;;;5072901;28;20166;-77
2023/05/15 07:15:45;;;;;;;40.20;27.93;;;14.50;99.90;;;;;;5073583;28;20174;-76
2023/05/15 07:18:11;;;;;;;41.93;29.30;;;14.50;99.90;;;;;;5073338;28;20167;-76
2023/05/15 07:20:37;;;;;;;44.63;29.60;;;14.50;99.90;;;;;;5075162;28;20170;-78
2023/05/15 07:23:03;;;;;;;48.90;30.47;;;14.50;99.90;;;;;;5074378;28;20232;-77
2023/05/15 07:25:29;;;;;;;44.87;29.97;;;14.60;99.90;;;;;;5073527;28;20175;-77
2023/05/15 07:27:54;;;;;;;41.70;30.17;;;14.70;99.90;;;;;;5073136;28;20198;-77
2023/05/15 07:30:20;;;;;;;51.93;32.27;;;14.80;99.90;;;;;;5074292;28;20251;-78
2023/05/15 07:32:46;;;;;;;44.43;30.03;;;14.80;99.90;;;;;;5073161;28;20284;-78
2023/05/15 07:35:12;;;;;;;41.83;29.27;;;14.80;99.90;;;;;;5072752;28;20181;-78
2023/05/15 07:37:38;;;;;;;45.70;29.70;;;15.10;99.90;;;;;;5074345;28;20163;-78
2023/05/15 07:40:04;;;;;;;46.70;32.03;;;15.30;99.90;;;;;;5074587;28;20238;-78
2023/05/15 07:42:31;;;;;;;42.23;29.20;;;15.40;99.90;;;;;;5074343;28;20340;-78
2023/05/15 07:44:57;;;;;;;47.23;30.43;;;15.60;99.90;;;;;;5072501;28;20262;-78
2023/05/15 07:47:22;;;;;;;38.53;28.70;;;15.80;99.90;;;;;;5074876;28;20274;-78
2023/05/15 07:49:49;;;;;;;50.73;31.37;;;15.90;99.90;;;;;;5073961;28;20194;-77
2023/05/15 07:52:14;;;;;;;47.70;31.93;;;16.00;99.90;;;;;;5074136;28;20624;-78
2023/05/15 07:54:41;;;;;;;51.20;33.70;;;15.90;99.90;;;;;;5073188;28;20217;-77
2023/05/15 07:57:08;;;;;;;52.83;32.97;;;16.00;99.90;;;;;;5072854;28;20167;-75
2023/05/15 07:59:35;;;;;;;48.93;33.20;;;15.70;99.90;;;;;;5072725;28;20289;-74
2023/05/15 08:02:01;;;;;;;54.57;34.57;;;15.70;99.90;;;;;;5072131;28;20174;-75
2023/05/15 08:04:26;;;;;;;48.47;32.23;;;15.90;99.90;;;;;;5073581;28;20208;-75
2023/05/15 08:06:52;;;;;;;50.47;32.23;;;16.10;99.90;;;;;;5071587;28;20191;-75
2023/05/15 08:09:18;;;;;;;45.50;31.87;;;16.30;99.90;;;;;;5073775;28;20159;-75
2023/05/15 08:11:43;;;;;;;44.53;30.80;;;16.30;99.90;;;;;;5071931;28;20167;-75
2023/05/15 08:14:09;;;;;;;49.37;31.90;;;16.50;99.90;;;;;;5071752;28;20172;-75
2023/05/15 08:16:35;;;;;;;43.67;29.33;;;16.50;99.90;;;;;;5071832;28;20167;-74
2023/05/15 08:19:03;;;;;;;43.40;29.40;;;16.80;99.90;;;;;;5071631;28;20163;-75
2023/05/15 08:21:30;;;;;;;43.30;30.13;;;16.90;99.90;;;;;;5072664;28;20174;-74
2023/05/15 08:23:58;;;;;;;42.37;30.73;;;17.20;99.90;;;;;;5072689;28;20554;-75
2023/05/15 08:26:24;;;;;;;46.93;30.03;;;17.20;99.90;;;;;;5073182;28;20642;-76
2023/05/15 08:28:50;;;;;;;44.17;29.93;;;17.00;99.90;;;;;;5072870;28;20261;-75
2023/05/15 08:31:15;;;;;;;44.87;29.27;;;16.70;99.90;;;;;;5071889;28;20252;-74
2023/05/15 08:33:41;;;;;;;44.40;29.57;;;16.70;99.90;;;;;;5071526;28;20174;-74
2023/05/15 08:36:07;;;;;;;38.60;28.03;;;16.80;99.90;;;;;;5071663;28;20602;-74
2023/05/15 08:38:33;;;;;;;44.17;29.80;;;16.40;99.90;;;;;;5071509;28;20284;-75
2023/05/15 08:41:20;;;;;;;46.77;29.70;;;16.50;99.90;;;;;;5071624;28;20186;-74
2023/05/15 08:43:48;;;;;;;43.70;28.53;;;16.70;99.90;;;;;;5071573;28;20205;-75
2023/05/15 08:46:15;;;;;;;43.30;29.60;;;16.80;99.90;;;;;;5071594;28;20653;-74
2023/05/15 08:48:42;;;;;;;47.07;31.40;;;16.90;99.90;;;;;;5071308;28;20171;-73
2023/05/15 08:51:09;;;;;;;45.30;31.17;;;16.90;99.90;;;;;;5071119;28;20167;-74
2023/05/15 08:53:35;;;;;;;43.33;30.33;;;16.90;99.90;;;;;;5072453;28;20187;-75
2023/05/15 08:56:02;;;;;;;47.03;32.23;;;17.10;99.90;;;;;;5072534;28;20655;-74
2023/05/15 08:58:28;;;;;;;42.07;29.93;;;17.10;99.90;;;;;;5071393;28;20643;-76
2023/05/15 09:00:55;;;;;;;44.70;31.03;;;17.00;99.90;;;;;;5072575;28;20178;-75
2023/05/15 09:03:22;;;;;;;44.70;29.97;;;17.10;99.90;;;;;;5072174;28;20164;-74
2023/05/15 09:05:51;;;;;;;43.27;30.27;;;17.30;99.90;;;;;;5072444;28;20179;-75
2023/05/15 09:08:20;;;;;;;41.07;29.07;;;17.30;99.90;;;;;;5071215;28;20217;-74
2023/05/15 09:10:46;;;;;;;43.83;30.57;;;17.50;99.90;;;;;;5071455;28;20617;-75
2023/05/15 09:13:13;;;;;;;40.63;28.17;;;17.40;99.90;;;;;;5071604;28;20171;-75
2023/05/15 09:15:39;;;;;;;41.17;28.07;;;17.70;99.90;;;;;;5071680;28;20620;-75
2023/05/15 09:18:06;;;;;;;41.67;27.97;;;17.90;99.90;;;;;;5072830;28;20318;-75
2023/05/15 09:20:36;;;;;;;39.77;28.57;;;17.90;99.90;;;;;;5075434;28;20470;-74
2023/05/15 09:23:04;;;;;;;38.17;27.87;;;17.70;99.90;;;;;;5075929;28;20271;-75
2023/05/15 09:25:40;;;;;;;43.57;29.30;;;17.90;99.90;;;;;;5076641;28;20180;-74
2023/05/15 09:28:23;;;;;;;40.67;28.53;;;17.90;99.90;;;;;;5075040;28;20242;-74
2023/05/15 09:30:49;;;;;;;39.50;29.53;;;18.40;99.90;;;;;;5076357;28;20252;-74
2023/05/15 09:33:16;;;;;;;42.70;29.57;;;18.10;99.90;;;;;;5076711;28;20253;-74
2023/05/15 09:35:44;;;;;;;42.17;28.77;;;17.90;99.90;;;;;;5076476;28;20152;-74
2023/05/15 09:38:11;;;;;;;39.03;27.27;;;18.10;99.90;;;;;;5076557;28;20159;-74
2023/05/15 09:40:40;;;;;;;39.67;28.80;;;17.90;99.90;;;;;;5075014;28;20200;-76
2023/05/15 09:43:08;;;;;;;41.83;29.23;;;17.60;99.90;;;;;;5076585;28;20215;-75
2023/05/15 09:45:34;;;;;;;40.50;28.77;;;17.60;99.90;;;;;;5076228;28;20192;-76
2023/05/15 09:48:04;;;;;;;40.27;27.97;;;17.90;99.90;;;;;;5075056;28;20267;-77
2023/05/15 09:50:37;;;;;;;36.23;27.13;;;17.80;99.90;;;;;;5075061;28;20231;-75
2023/05/15 09:53:04;;;;;;;41.87;29.43;;;18.10;99.90;;;;;;5075108;28;20196;-76
2023/05/15 09:55:35;;;;;;;38.43;28.20;;;18.30;99.90;;;;;;5076792;28;20518;-76
2023/05/15 09:58:07;;;;;;;39.83;26.30;;;18.40;99.90;;;;;;5075269;28;20640;-75
2023/05/15 10:00:34;;;;;;;39.43;28.07;;;18.70;99.90;;;;;;5076396;28;20244;-76
2023/05/15 10:03:03;;;;;;;33.97;25.23;;;18.70;99.90;;;;;;5076546;28;20178;-76
2023/05/15 10:05:30;;;;;;;37.33;26.83;;;19.00;99.90;;;;;;5076161;28;20632;-76
2023/05/15 10:07:58;;;;;;;38.40;25.37;;;19.10;99.90;;;;;;5076231;28;20186;-76
2023/05/15 10:10:25;;;;;;;36.83;25.50;;;19.20;99.90;;;;;;5075964;28;20175;-76
2023/05/15 10:12:52;;;;;;;35.60;24.67;;;19.00;99.90;;;;;;5076784;28;20185;-76
2023/05/15 10:15:20;;;;;;;36.97;24.60;;;18.40;99.90;;;;;;5076030;28;20209;-76
2023/05/15 10:17:51;;;;;;;40.60;25.87;;;18.20;99.90;;;;;;5076168;28;20537;-75
2023/05/15 10:20:18;;;;;;;38.60;24.90;;;18.20;99.90;;;;;;5075693;28;20464;-75
2023/05/15 10:22:47;;;;;;;37.73;26.17;;;18.10;99.90;;;;;;5075782;28;20180;-75
2023/05/15 10:25:25;;;;;;;36.93;25.30;;;18.30;99.90;;;;;;5074960;28;20181;-76
2023/05/15 10:27:52;;;;;;;40.33;24.33;;;18.20;99.90;;;;;;5075841;28;20241;-76
2023/05/15 10:30:19;;;;;;;37.07;24.03;;;18.60;99.90;;;;;;5074114;28;20765;-77
2023/05/15 10:32:45;;;;;;;36.33;22.83;;;18.70;99.90;;;;;;5074185;28;20234;-76
2023/05/15 10:35:11;;;;;;;38.50;24.47;;;18.60;99.90;;;;;;5074228;28;20181;-75
2023/05/15 10:37:39;;;;;;;42.53;24.83;;;18.70;99.90;;;;;;5074126;28;20189;-76
2023/05/15 10:40:08;;;;;;;35.07;24.00;;;18.50;99.90;;;;;;5075378;28;20328;-76
2023/05/15 10:42:34;;;;;;;41.20;24.97;;;18.30;99.90;;;;;;5073714;28;20189;-75
2023/05/15 10:45:01;;;;;;;37.03;23.87;;;18.20;99.90;;;;;;5075143;28;20180;-75
2023/05/15 10:47:29;;;;;;;41.27;25.27;;;18.00;99.90;;;;;;5074679;28;20251;-75
2023/05/15 10:49:57;;;;;;;41.33;25.80;;;17.90;99.90;;;;;;5073743;28;20202;-75
2023/05/15 10:52:23;;;;;;;48.33;27.37;;;17.90;99.90;;;;;;5074875;28;20166;-76
2023/05/15 10:54:52;;;;;;;46.17;26.60;;;17.70;99.90;;;;;;5075318;28;20243;-75
2023/05/15 10:57:20;;;;;;;48.67;28.23;;;17.50;99.90;;;;;;5073596;28;20203;-75
2023/05/15 10:59:46;;;;;;;54.93;29.37;;;17.80;99.90;;;;;;5075023;28;20187;-76
2023/05/15 11:02:25;;;;;;;53.10;30.40;;;18.00;99.90;;;;;;5075183;28;20209;-77
2023/05/15 11:05:01;;;;;;;51.23;29.10;;;17.90;99.90;;;;;;5075040;28;20173;-77
2023/05/15 11:07:27;;;;;;;54.13;29.37;;;17.70;99.90;;;;;;5074440;28;20201;-76
2023/05/15 11:09:55;;;;;;;59.43;32.93;;;17.90;99.90;;;;;;5073472;28;20618;-75
2023/05/15 11:12:23;;;;;;;57.87;32.90;;;18.10;99.90;;;;;;5073167;28;20174;-76
2023/05/15 11:14:54;;;;;;;60.80;32.93;;;18.20;99.90;;;;;;5074452;28;20223;-75
2023/05/15 11:17:22;;;;;;;61.57;34.57;;;18.40;99.90;;;;;;5074292;28;20179;-75
2023/05/15 11:19:48;;;;;;;57.97;32.27;;;18.40;99.90;;;;;;5074339;28;20620;-77
2023/05/15 11:22:13;;;;;;;75.67;37.00;;;18.50;99.90;;;;;;5074200;28;20220;-76
2023/05/15 11:25:02;;;;;;;76.30;38.87;;;18.20;99.90;;;;;;5074551;28;20193;-76
2023/05/15 11:27:30;;;;;;;74.67;38.47;;;18.20;99.90;;;;;;5073183;28;20189;-76
2023/05/15 11:30:06;;;;;;;76.70;38.30;;;18.10;99.90;;;;;;5073095;28;20539;-77
2023/05/15 11:32:47;;;;;;;71.23;38.67;;;18.00;99.90;;;;;;5074426;28;20699;-76
2023/05/15 11:35:24;;;;;;;78.50;39.17;;;17.70;99.90;;;;;;5074488;28;20164;-75
2023/05/15 11:37:59;;;;;;;75.70;38.90;;;17.70;99.90;;;;;;5074560;28;20157;-75
2023/05/15 11:40:29;;;;;;;74.53;35.90;;;17.60;99.90;;;;;;5073864;28;20181;-75
2023/05/15 11:43:15;;;;;;;82.00;37.73;;;17.60;99.90;;;;;;5073280;28;20266;-75
2023/05/15 11:45:42;;;;;;;70.93;35.47;;;17.80;99.90;;;;;;5074154;28;20503;-76
2023/05/15 11:48:13;;;;;;;64.17;34.30;;;17.80;99.90;;;;;;5073121;28;20204;-76
2023/05/15 11:50:40;;;;;;;64.30;33.40;;;17.60;99.90;;;;;;5074324;28;20161;-77
2023/05/15 11:53:07;;;;;;;76.37;38.23;;;17.60;99.90;;;;;;5073839;28;20194;-75
2023/05/15 11:55:34;;;;;;;86.63;41.03;;;17.70;99.90;;;;;;5072901;28;20169;-76
2023/05/15 11:58:00;;;;;;;86.90;42.87;;;17.80;99.90;;;;;;5072168;28;20189;-76
2023/05/15 12:00:26;;;;;;;89.07;42.90;;;17.60;99.90;;;;;;5072049;28;20180;-76
2023/05/15 12:02:52;;;;;;;92.70;43.17;;;17.60;99.90;;;;;;5073341;28;20251;-76
2023/05/15 12:05:19;;;;;;;90.87;43.03;;;17.30;99.90;;;;;;5073385;28;20208;-76
2023/05/15 12:07:45;;;;;;;81.13;40.43;;;17.00;99.90;;;;;;5072050;28;20671;-75
2023/05/15 12:10:12;;;;;;;82.17;41.13;;;16.90;99.90;;;;;;5072157;28;20195;-76
2023/05/15 12:12:42;;;;;;;72.73;39.20;;;16.70;99.90;;;;;;5071888;28;20609;-75
2023/05/15 12:15:12;;;;;;;68.87;37.17;;;16.80;99.90;;;;;;5073029;28;20230;-75
2023/05/15 12:17:42;;;;;;;70.50;36.83;;;16.70;99.90;;;;;;5073226;28;20175;-75
2023/05/15 12:20:16;;;;;;;67.03;37.17;;;16.60;99.90;;;;;;5073495;28;20194;-76
2023/05/15 12:22:42;;;;;;;65.80;36.50;;;16.80;99.90;;;;;;5073466;28;20171;-75
2023/05/15 12:25:10;;;;;;;68.33;37.13;;;16.70;99.90;;;;;;5073115;28;20179;-75
2023/05/15 12:27:38;;;;;;;68.50;35.53;;;16.50;99.90;;;;;;5071599;28;20198;-75